Data for 07/28/2017

Time Sea-Level Adjusted Pressure Absolute Pressure Temperature Relative Humidity Dew Point   
(mb) (inHg) (mb) (inHg) (C) (F) (%) (C) (F)
00:05 1022 30.18 851 25.13 16.6 61.9 57 8 46.4
00:10 1022 30.18 851 25.13 16.5 61.7 57 8 46.5
00:15 1022 30.18 851 25.13 16.3 61.3 58 8 46.4
00:20 1022 30.18 851 25.13 15.9 60.6 61 8.4 47.1
00:25 1022 30.18 851 25.13 15.4 59.8 61 7.9 46.3
00:30 1022 30.18 851 25.13 15.5 59.8 61 8.1 46.6
00:35 1022 30.18 851 25.13 15.6 60 59 7.7 45.8
00:40 1022 30.18 851 25.13 15.8 60.4 59 7.8 46
00:45 1022 30.18 851 25.13 15.9 60.6 57 7.5 45.5
00:50 1022 30.18 851 25.13 15.9 60.6 58 7.8 46
00:55 1022 30.18 851 25.13 15.7 60.2 58 7.4 45.4
01:00 1022 30.18 851 25.13 15.8 60.4 59 7.8 46.1
01:05 1022 30.18 851 25.13 16 60.7 59 8 46.3
01:10 1022 30.18 851 25.13 16.1 61 56 7.4 45.3
01:15 1022 30.18 851 25.13 16 60.9 58 7.7 45.9
01:20 1022 30.18 851 25.13 15.7 60.3 58 7.5 45.4
01:25 1022 30.18 851 25.13 15.7 60.2 59 7.7 45.9
01:30 1022 30.18 851 25.13 15.4 59.8 59 7.6 45.8
01:35 1022 30.18 851 25.13 15.4 59.6 59 7.5 45.5
01:40 1022 30.18 851 25.13 15.4 59.8 59 7.6 45.7
01:45 1022 30.18 851 25.13 15.4 59.6 59 7.5 45.5
01:50 1022 30.18 851 25.13 15.5 59.8 59 7.6 45.8
01:55 1022 30.18 851 25.13 15.5 60 59 7.5 45.5
02:00 1022 30.18 851 25.13 15.4 59.6 60 7.8 46
02:05 1022 30.18 851 25.13 15.2 59.4 60 7.5 45.4
02:10 1022 30.18 851 25.13 15.2 59.4 60 7.5 45.4
02:15 1022 30.18 851 25.13 15.2 59.3 61 7.8 46.1
02:20 1022 30.18 851 25.13 15.2 59.3 62 7.9 46.2
02:25 1022 30.18 851 25.13 15.4 59.7 57 6.9 44.4
02:30 1022 30.18 851 25.13 15.7 60.2 56 6.9 44.5
02:35 1022 30.18 851 25.13 15.6 60 56 7 44.6
02:40 1022 30.18 851 25.13 15.5 59.8 56 6.9 44.4
02:45 1022 30.18 851 25.13 15.5 60 56 6.9 44.5
02:50 1022 30.18 851 25.13 15.4 59.7 57 7.1 44.8
02:55 1022 30.18 851 25.13 15.1 59.3 58 6.9 44.5
03:00 1022 30.18 851 25.13 15.2 59.4 57 6.9 44.5
03:05 1022 30.18 851 25.13 15.1 59.1 58 6.9 44.5
03:10 1022 30.18 851 25.13 15 59.1 58 6.9 44.4
03:15 1022 30.18 851 25.13 14.9 58.9 58 6.9 44.5
03:20 1022 30.18 851 25.13 14.8 58.6 58 6.8 44.3
03:25 1022 30.18 851 25.13 14.7 58.5 60 7 44.6
03:30 1022 30.18 851 25.13 14.7 58.5 59 6.8 44.3
03:35 1022 30.18 851 25.13 14.6 58.3 60 7 44.7
03:40 1022 30.18 851 25.13 14.5 58.1 60 6.9 44.5
03:45 1022 30.18 851 25.13 14.6 58.2 59 6.8 44.2
03:50 1022 30.18 851 25.13 14.8 58.6 58 6.7 44
03:55 1022 30.18 851 25.13 15 58.9 57 6.6 43.9
04:00 1022 30.18 852 25.16 15.1 59.2 58 7 44.6
04:05 1022 30.18 852 25.16 14.8 58.6 60 7.1 44.8
04:10 1022 30.18 852 25.16 14.4 57.9 61 7.1 44.7
04:15 1022 30.18 852 25.16 14.1 57.4 62 7 44.7
04:20 1022 30.18 852 25.16 13.8 56.9 62 6.8 44.2
04:25 1022 30.18 852 25.16 13.9 57 63 7.1 44.8
04:30 1023 30.21 852 25.16 13.5 56.3 65 7.1 44.7
04:35 1023 30.21 852 25.16 13.5 56.3 62 6.6 43.8
04:40 1023 30.21 852 25.16 13.9 57.1 61 6.7 44.1
04:45 1023 30.21 852 25.16 14.1 57.3 61 6.7 44.1
04:50 1023 30.21 852 25.16 14 57.2 61 6.6 43.8
04:55 1023 30.21 852 25.16 14.1 57.3 61 6.7 44.1
05:00 1023 30.21 852 25.16 14 57.3 62 6.9 44.5
05:05 1023 30.21 852 25.16 14 57.2 63 7 44.6
05:10 1023 30.21 852 25.16 14 57.2 63 7.1 44.7
05:15 1023 30.21 852 25.16 13.9 57 63 7 44.7
05:20 1023 30.21 852 25.16 13.8 56.9 63 6.9 44.4
05:25 1023 30.21 852 25.16 13.9 57 63 6.9 44.5
05:30 1023 30.21 852 25.16 13.9 56.9 63 6.9 44.5
05:35 1023 30.21 852 25.16 13.5 56.4 65 7.1 44.7
05:40 1023 30.21 852 25.16 13.3 55.9 65 6.9 44.4
05:45 1023 30.21 852 25.16 13.6 56.4 63 6.6 43.9
05:50 1023 30.21 852 25.16 13.7 56.7 63 6.8 44.3
05:55 1023 30.21 852 25.16 13.6 56.5 63 6.8 44.2
06:00 1023 30.21 853 25.19 13.6 56.4 64 6.8 44.3
06:05 1023 30.21 853 25.19 13.4 56.2 64 6.8 44.3
06:10 1023 30.21 853 25.19 13.3 55.9 64 6.7 44.1
06:15 1023 30.21 853 25.19 13.3 55.9 65 6.8 44.3
06:20 1024 30.24 853 25.19 13 55.3 68 7.3 45.2
06:25 1024 30.24 853 25.19 12.4 54.3 69 6.8 44.3
06:30 1024 30.24 853 25.19 12.6 54.7 67 6.7 44.1
06:35 1024 30.24 853 25.19 12.8 55.1 66 6.8 44.2
06:40 1024 30.24 853 25.19 12.9 55.3 66 6.8 44.2
06:45 1024 30.24 853 25.19 13 55.3 65 6.7 44
06:50 1024 30.24 853 25.19 13.3 55.9 64 6.6 43.9
06:55 1024 30.24 853 25.19 13.4 56.2 64 6.8 44.3
07:00 1024 30.24 853 25.19 13.4 56.1 64 6.7 44.1
07:05 1024 30.24 853 25.19 13.5 56.3 64 6.8 44.3
07:10 1024 30.24 853 25.19 13.6 56.5 64 6.9 44.5
07:15 1024 30.24 853 25.19 13.9 57 62 6.9 44.4
07:20 1024 30.24 853 25.19 14 57.2 63 7.2 44.9
07:25 1024 30.24 853 25.19 14.1 57.4 62 7 44.5
07:30 1024 30.24 853 25.19 14.5 58.1 61 7.2 44.9
07:35 1024 30.24 853 25.19 14.8 58.7 60 7.2 44.9
07:40 1024 30.24 853 25.19 15.1 59.2 60 7.5 45.5
07:45 1024 30.24 853 25.19 15.3 59.5 58 7.2 44.9
07:50 1024 30.24 853 25.19 15.8 60.4 58 7.6 45.6
07:55 1024 30.24 853 25.19 15.9 60.7 58 7.7 45.9
08:00 1024 30.24 853 25.19 16.2 61.1 57 7.6 45.8
08:05 1024 30.24 853 25.19 16.3 61.3 57 7.8 46.1
08:10 1024 30.24 853 25.19 16.6 61.9 54 7.4 45.3
08:15 1024 30.24 853 25.19 16.7 62 56 7.8 46.1
08:20 1024 30.24 853 25.19 17.1 62.7 54 7.8 46
08:25 1024 30.24 853 25.19 17.2 63 54 8 46.5
08:30 1024 30.24 853 25.19 17.2 63 54 7.9 46.2
08:35 1024 30.24 853 25.19 17.5 63.4 53 7.8 46
08:40 1024 30.24 853 25.19 18 64.3 52 8 46.4
08:45 1024 30.24 853 25.19 18.7 65.7 50 8.1 46.5
08:50 1024 30.24 853 25.19 18.8 65.9 50 8.2 46.7
08:55 1024 30.24 853 25.19 19.2 66.6 48 8.2 46.7
09:00 1024 30.24 853 25.19 19.9 67.8 45 7.7 45.9
09:05 1024 30.24 853 25.19 20.5 69 43 7.6 45.7
09:10 1024 30.24 853 25.19 20.8 69.5 43 7.9 46.2
09:15 1024 30.24 853 25.19 20.9 69.7 42 7.7 45.8
09:20 1024 30.24 853 25.19 21 69.9 41 7.5 45.5
09:25 1024 30.24 853 25.19 22 71.6 40 7.9 46.2
09:30 1024 30.24 853 25.19 21.6 71 40 7.8 46
09:35 1024 30.24 853 25.19 21.5 70.8 40 7.4 45.3
09:40 1024 30.24 853 25.19 22.3 72.2 38 7.6 45.7
09:45 1024 30.24 853 25.19 22.9 73.3 36 7.1 44.8
09:50 1024 30.24 853 25.19 23.6 74.5 36 7.8 46
09:55 1024 30.24 853 25.19 22.7 72.9 37 7.4 45.3
10:00 1024 30.24 853 25.19 23.2 73.7 33 6.4 43.5
10:05 1024 30.24 853 25.19 24 75.2 33 7.1 44.7
10:10 1024 30.24 853 25.19 23.9 75.1 34 7.5 45.6
10:15 1024 30.24 853 25.19 23.3 73.9 36 7.5 45.5
10:20 1024 30.24 853 25.19 23.5 74.4 34 7 44.5
10:25 1024 30.24 853 25.19 24 75.3 32 6.8 44.2
10:30 1024 30.24 853 25.19 24.5 76 32 6.7 44.1
10:35 1024 30.24 853 25.19 24.8 76.6 33 7.4 45.3
10:40 1024 30.24 853 25.19 24.1 75.4 34 7.5 45.5
10:45 1024 30.24 853 25.19 24.5 76 33 7.4 45.2
10:50 1024 30.24 853 25.19 25.2 77.4 32 7.5 45.4
10:55 1024 30.24 853 25.19 25.7 78.2 29 6.5 43.8
11:00 1024 30.24 853 25.19 25.5 77.9 31 7.2 45
11:05 1024 30.24 853 25.19 25.6 78.1 30 6.8 44.2
11:10 1024 30.24 853 25.19 25.7 78.3 28 6.2 43.2
11:15 1024 30.24 853 25.19 25.5 77.8 29 6.5 43.6
11:20 1024 30.24 853 25.19 25.8 78.4 30 7 44.6
11:25 1024 30.24 853 25.19 25.4 77.8 28 5.7 42.2
11:30 1024 30.24 853 25.19 26.2 79.2 28 6.7 44.1
11:35 1024 30.24 853 25.19 26.4 79.5 27 6.3 43.3
11:40 1024 30.24 853 25.19 26.3 79.4 28 6.6 43.8
11:45 1024 30.24 853 25.19 26.1 79 28 6.7 44.1
11:50 1024 30.24 853 25.19 26.3 79.4 27 6 42.8
11:55 1024 30.24 853 25.19 26.5 79.6 27 6.2 43.2
12:00 1023 30.21 853 25.19 27.1 80.8 25 5.6 42.2
12:05 1023 30.21 853 25.19 27.5 81.5 27 7.1 44.9
12:10 1023 30.21 853 25.19 28.1 82.5 25 6.5 43.7
12:15 1023 30.21 852 25.16 27.4 81.4 25 6 42.8
12:20 1023 30.21 852 25.16 27.1 80.8 25 5.6 42.1
12:25 1023 30.21 852 25.16 27.4 81.2 24 5.3 41.5
12:30 1023 30.21 852 25.16 27.4 81.4 25 5.8 42.4
12:35 1023 30.21 852 25.16 27.3 81.2 24 5.4 41.7
12:40 1023 30.21 852 25.16 27.4 81.3 22 4.1 39.3
12:45 1023 30.21 852 25.16 27.7 81.9 24 5.8 42.4
12:50 1023 30.21 852 25.16 27.5 81.5 24 5.6 42.2
12:55 1023 30.21 852 25.16 27.6 81.6 25 5.9 42.6
13:00 1023 30.21 852 25.16 27.5 81.4 25 5.9 42.7
13:05 1023 30.21 852 25.16 27 80.7 24 4.9 40.8
13:10 1023 30.21 852 25.16 27.7 81.8 23 4.9 40.9
13:15 1023 30.21 852 25.16 27.8 82.1 22 4.4 39.9
13:20 1023 30.21 852 25.16 27.1 80.8 24 4.8 40.7
13:25 1023 30.21 852 25.16 27.7 81.8 23 5.1 41.1
13:30 1023 30.21 852 25.16 28.6 83.5 22 5 41
13:35 1023 30.21 852 25.16 29.2 84.5 22 5.5 41.9
13:40 1023 30.21 852 25.16 29.1 84.3 22 5.4 41.7
13:45 1023 30.21 852 25.16 29.3 84.7 20 4 39.2
13:50 1023 30.21 852 25.16 29.2 84.5 20 4.3 39.8
13:55 1022 30.18 852 25.16 29.1 84.3 19 3.8 38.8
14:00 1022 30.18 852 25.16 29.1 84.4 20 4.2 39.5
14:05 1022 30.18 852 25.16 29.3 84.7 20 4.1 39.4
14:10 1022 30.18 851 25.13 28.8 83.9 19 3.2 37.7
14:15 1022 30.18 851 25.13 29.3 84.7 19 3.8 38.9
14:20 1022 30.18 851 25.13 29.6 85.3 21 5 41
14:25 1022 30.18 851 25.13 29.7 85.5 19 4.1 39.4
14:30 1022 30.18 851 25.13 29.5 85.2 18 3.4 38.1
14:35 1022 30.18 851 25.13 29.5 85.1 20 4.5 40.1
14:40 1022 30.18 851 25.13 29.8 85.7 19 3.9 39
14:45 1022 30.18 851 25.13 30.7 87.2 18 4 39.1
14:50 1022 30.18 851 25.13 30.8 87.5 19 4.6 40.3
14:55 1022 30.18 851 25.13 29.9 85.9 19 4.1 39.3
15:00 1022 30.18 851 25.13 30 86 18 3.7 38.6
15:05 1022 30.18 851 25.13 30.1 86.2 16 2.3 36.1
15:10 1022 30.18 851 25.13 30.1 86.2 18 3.4 38.2
15:15 1022 30.18 851 25.13 30.6 87.1 17 2.9 37.2
15:20 1022 30.18 851 25.13 30.5 86.9 17 2.7 36.8
15:25 1022 30.18 851 25.13 31 87.8 15 2.2 35.9
15:30 1022 30.18 851 25.13 30.3 86.5 16 2.4 36.4
15:35 1022 30.18 851 25.13 30 86.1 18 3.4 38.1
15:40 1022 30.18 851 25.13 29.9 85.7 17 2.5 36.5
15:45 1022 30.18 851 25.13 30.4 86.7 15 1.3 34.3
15:50 1022 30.18 851 25.13 30.9 87.5 15 1.3 34.4
15:55 1021 30.15 851 25.13 30.6 87 14 0.9 33.5
16:00 1021 30.15 851 25.13 30.5 86.9 14 0.1 32.2
16:05 1021 30.15 851 25.13 30.1 86.1 14 0.4 32.8
16:10 1021 30.15 851 25.13 30.4 86.7 15 1.2 34.2
16:15 1021 30.15 851 25.13 29.3 84.7 15 0.6 33
16:20 1021 30.15 851 25.13 30.3 86.6 14 -0.1 31.8
16:25 1021 30.15 850 25.1 31.2 88.1 13 -0.6 30.8
16:30 1021 30.15 850 25.1 30.9 87.7 14 0.9 33.6
16:35 1021 30.15 850 25.1 30.4 86.7 14 0.3 32.5
16:40 1021 30.15 850 25.1 31.3 88.4 13 0.5 32.9
16:45 1021 30.15 850 25.1 31.6 89 14 1.2 34.2
16:50 1021 30.15 850 25.1 30.6 87 13 -0.5 31.2
16:55 1021 30.15 850 25.1 30.3 86.6 13 -0.9 30.4
17:00 1021 30.15 850 25.1 29.8 85.6 13 -0.9 30.4
17:05 1021 30.15 850 25.1 30.6 87.1 13 -0.6 30.8
17:10 1021 30.15 850 25.1 31.4 88.4 13 0 32
17:15 1021 30.15 850 25.1 31 87.9 13 -0.6 31
17:20 1021 30.15 850 25.1 30.1 86.3 13 -0.7 30.7
17:25 1021 30.15 850 25.1 30.6 87 12 -1.4 29.6
17:30 1021 30.15 850 25.1 30.5 87 13 -1 30.1
17:35 1021 30.15 850 25.1 30.7 87.2 12 -1.4 29.4
17:40 1021 30.15 850 25.1 30.6 87.1 13 -1.1 30.1
17:45 1021 30.15 850 25.1 29.8 85.7 12 -2.1 28.2
17:50 1021 30.15 850 25.1 30 86.1 13 -1.3 29.6
17:55 1021 30.15 850 25.1 30.1 86.2 12 -2.4 27.7
18:00 1021 30.15 850 25.1 30.2 86.3 13 -1.1 30
18:05 1021 30.15 850 25.1 30.4 86.8 11 -2.6 27.3
18:10 1021 30.15 850 25.1 30.5 86.8 11 -2.4 27.6
18:15 1021 30.15 850 25.1 30.1 86.2 12 -1.7 29
18:20 1021 30.15 850 25.1 29.9 85.8 12 -1.7 28.9
18:25 1021 30.15 850 25.1 29.8 85.6 12 -2 28.4
18:30 1021 30.15 850 25.1 29.5 85 15 0.4 32.8
18:35 1021 30.15 850 25.1 28.6 83.5 17 1.6 34.8
18:40 1021 30.15 850 25.1 28.2 82.8 19 2.6 36.7
18:45 1021 30.15 850 25.1 28.1 82.5 19 2.6 36.8
18:50 1021 30.15 850 25.1 27.7 81.8 16 -0.2 31.6
18:55 1021 30.15 850 25.1 27.8 82 15 -1.2 29.9
19:00 1021 30.15 850 25.1 28 82.3 15 -0.5 31.2
19:05 1021 30.15 850 25.1 28.2 82.7 17 1.3 34.4
19:10 1021 30.15 850 25.1 27.3 81.2 22 4 39.2
19:15 1021 30.15 850 25.1 26.6 79.8 22 3.4 38.1
19:20 1021 30.15 850 25.1 26.3 79.3 23 3.6 38.5
19:25 1021 30.15 850 25.1 26.1 78.9 22 2.8 37
19:30 1021 30.15 850 25.1 26.1 79 20 1.8 35.2
19:35 1021 30.15 850 25.1 26.3 79.3 21 2.4 36.3
19:40 1021 30.15 850 25.1 26.2 79.1 20 1.9 35.5
19:45 1021 30.15 850 25.1 26.2 79.1 21 2.3 36.1
19:50 1021 30.15 850 25.1 26.2 79.1 19 1.3 34.4
19:55 1021 30.15 850 25.1 26.2 79.1 22 2.9 37.2
20:00 1021 30.15 850 25.1 26.1 79 20 1.4 34.6
20:05 1021 30.15 850 25.1 26.1 78.9 19 1.2 34.2
20:10 1020 30.12 850 25.1 26 78.8 20 1.3 34.3
20:15 1020 30.12 850 25.1 25.8 78.5 22 2.8 37.1
20:20 1020 30.12 850 25.1 25.4 77.8 24 3.5 38.3
20:25 1020 30.12 850 25.1 25 77.1 24 3.1 37.6
20:30 1020 30.12 850 25.1 24.8 76.7 24 3.2 37.7
20:35 1021 30.15 850 25.1 24.7 76.5 25 3.9 39
20:40 1021 30.15 850 25.1 24.6 76.3 25 3.4 38.2
20:45 1021 30.15 850 25.1 24.3 75.8 25 3.5 38.2
20:50 1021 30.15 850 25.1 24.2 75.5 25 3.4 38
20:55 1021 30.15 850 25.1 24.1 75.4 28 4.9 40.8
21:00 1021 30.15 850 25.1 24.1 75.5 26 3.5 38.3
21:05 1021 30.15 850 25.1 23.9 75 27 3.7 38.7
21:10 1021 30.15 850 25.1 23.6 74.5 27 3.7 38.6
21:15 1021 30.15 850 25.1 23.7 74.7 28 4.5 40.1
21:20 1021 30.15 850 25.1 23.9 74.9 25 3.1 37.5
21:25 1021 30.15 850 25.1 24 75.2 27 4 39.2
21:30 1021 30.15 850 25.1 23.5 74.3 30 5.1 41.1
21:35 1021 30.15 850 25.1 23 73.5 30 4.6 40.3
21:40 1021 30.15 851 25.13 22.9 73.2 30 4.7 40.5
21:45 1022 30.18 851 25.13 22.7 72.8 31 5 41.1
21:50 1022 30.18 851 25.13 22.8 73 31 4.7 40.5
21:55 1022 30.18 851 25.13 22.7 72.9 31 5.1 41.2
22:00 1022 30.18 851 25.13 22.6 72.6 32 5.1 41.1
22:05 1022 30.18 852 25.16 22.7 72.8 33 5.6 42.1
22:10 1022 30.18 852 25.16 22.8 73 32 5.6 42.1
22:15 1022 30.18 852 25.16 22.8 73.1 32 5.5 42
22:20 1023 30.21 852 25.16 22.8 73 35 6.7 44
22:25 1023 30.21 852 25.16 22.7 72.9 34 6 42.9
22:30 1023 30.21 852 25.16 22.5 72.5 34 6.2 43.2
22:35 1023 30.21 852 25.16 22.3 72.1 35 6.2 43.2
22:40 1023 30.21 852 25.16 22.1 71.7 36 6.6 43.9
22:45 1023 30.21 852 25.16 21.8 71.2 38 6.8 44.3
22:50 1023 30.21 852 25.16 21.5 70.7 39 7.1 44.7
22:55 1023 30.21 852 25.16 21.1 70.1 40 7.2 44.9
23:00 1023 30.21 853 25.19 20.9 69.5 41 7.4 45.2
23:05 1023 30.21 853 25.19 20.5 69 42 7.5 45.5
23:10 1023 30.21 853 25.19 20.3 68.6 43 7.5 45.4
23:15 1024 30.24 853 25.19 20.2 68.4 43 7.4 45.3
23:20 1024 30.24 853 25.19 20.5 69 40 6.6 43.9
23:25 1024 30.24 853 25.19 20.9 69.6 39 6.8 44.2
23:30 1024 30.24 853 25.19 21 69.8 38 6.3 43.3
23:35 1024 30.24 853 25.19 21.2 70.2 38 6.4 43.5
23:40 1024 30.24 853 25.19 21.2 70.2 39 7 44.6
23:45 1024 30.24 853 25.19 20.9 69.7 40 7.1 44.8
23:50 1023 30.21 853 25.19 20.9 69.5 41 7.4 45.2
23:55 1023 30.21 853 25.19 20.6 69.1 43 7.6 45.7
24:00 1023 30.21 853 25.19 20.6 69.1 41 7.2 44.9